sensor_id;sensor_type;location;lat;lon;timestamp;P1;durP1;ratioP1;P2;durP2;ratioP2
45564;SDS011;31280;40.408;17.282;2022-11-03T00:01:37;9.70;;;3.70;;
45564;SDS011;31280;40.408;17.282;2022-11-03T00:04:04;14.65;;;4.53;;
45564;SDS011;31280;40.408;17.282;2022-11-03T00:06:32;7.70;;;3.83;;
45564;SDS011;31280;40.408;17.282;2022-11-03T00:08:58;10.48;;;3.60;;
45564;SDS011;31280;40.408;17.282;2022-11-03T00:11:25;12.35;;;4.30;;
45564;SDS011;31280;40.408;17.282;2022-11-03T00:13:52;8.52;;;3.88;;
45564;SDS011;31280;40.408;17.282;2022-11-03T00:16:18;11.27;;;4.13;;
45564;SDS011;31280;40.408;17.282;2022-11-03T00:18:45;8.52;;;2.60;;
45564;SDS011;31280;40.408;17.282;2022-11-03T00:21:11;10.85;;;3.50;;
45564;SDS011;31280;40.408;17.282;2022-11-03T00:23:39;9.05;;;3.20;;
45564;SDS011;31280;40.408;17.282;2022-11-03T00:28:38;7.65;;;3.25;;
45564;SDS011;31280;40.408;17.282;2022-11-03T00:31:06;8.20;;;3.97;;
45564;SDS011;31280;40.408;17.282;2022-11-03T00:33:34;13.75;;;3.50;;
45564;SDS011;31280;40.408;17.282;2022-11-03T00:36:01;13.75;;;4.35;;
45564;SDS011;31280;40.408;17.282;2022-11-03T00:38:28;12.48;;;4.18;;
45564;SDS011;31280;40.408;17.282;2022-11-03T00:40:55;12.80;;;3.10;;
45564;SDS011;31280;40.408;17.282;2022-11-03T00:43:22;10.18;;;3.22;;
45564;SDS011;31280;40.408;17.282;2022-11-03T00:45:49;8.43;;;3.42;;
45564;SDS011;31280;40.408;17.282;2022-11-03T00:48:15;12.60;;;3.63;;
45564;SDS011;31280;40.408;17.282;2022-11-03T00:51:04;9.57;;;3.03;;
45564;SDS011;31280;40.408;17.282;2022-11-03T00:53:32;6.88;;;3.30;;
45564;SDS011;31280;40.408;17.282;2022-11-03T00:56:10;9.63;;;3.42;;
45564;SDS011;31280;40.408;17.282;2022-11-03T00:58:38;7.18;;;3.70;;
45564;SDS011;31280;40.408;17.282;2022-11-03T01:01:11;9.88;;;3.60;;
45564;SDS011;31280;40.408;17.282;2022-11-03T01:03:43;7.15;;;3.05;;
45564;SDS011;31280;40.408;17.282;2022-11-03T01:06:30;7.30;;;3.83;;
45564;SDS011;31280;40.408;17.282;2022-11-03T01:09:19;9.32;;;3.28;;
45564;SDS011;31280;40.408;17.282;2022-11-03T01:14:26;6.78;;;2.92;;
45564;SDS011;31280;40.408;17.282;2022-11-03T01:16:56;9.10;;;3.67;;
45564;SDS011;31280;40.408;17.282;2022-11-03T01:19:22;13.90;;;3.10;;
45564;SDS011;31280;40.408;17.282;2022-11-03T01:21:50;8.95;;;2.88;;
45564;SDS011;31280;40.408;17.282;2022-11-03T01:24:19;10.93;;;3.60;;
45564;SDS011;31280;40.408;17.282;2022-11-03T01:26:45;8.63;;;3.28;;
45564;SDS011;31280;40.408;17.282;2022-11-03T01:29:11;9.82;;;4.95;;
45564;SDS011;31280;40.408;17.282;2022-11-03T01:31:37;4.88;;;2.97;;
45564;SDS011;31280;40.408;17.282;2022-11-03T01:34:02;7.55;;;3.10;;
45564;SDS011;31280;40.408;17.282;2022-11-03T01:36:28;8.77;;;3.28;;
45564;SDS011;31280;40.408;17.282;2022-11-03T01:38:54;9.68;;;3.67;;
45564;SDS011;31280;40.408;17.282;2022-11-03T01:41:22;11.98;;;3.47;;
45564;SDS011;31280;40.408;17.282;2022-11-03T01:44:24;10.60;;;3.28;;
45564;SDS011;31280;40.408;17.282;2022-11-03T01:49:12;15.45;;;3.60;;
45564;SDS011;31280;40.408;17.282;2022-11-03T01:51:42;10.82;;;2.92;;
45564;SDS011;31280;40.408;17.282;2022-11-03T01:54:12;7.10;;;3.55;;
45564;SDS011;31280;40.408;17.282;2022-11-03T01:56:41;10.77;;;3.80;;
45564;SDS011;31280;40.408;17.282;2022-11-03T01:59:11;10.27;;;3.40;;
45564;SDS011;31280;40.408;17.282;2022-11-03T02:01:39;9.90;;;3.55;;
45564;SDS011;31280;40.408;17.282;2022-11-03T02:04:18;9.82;;;3.55;;
45564;SDS011;31280;40.408;17.282;2022-11-03T02:06:48;14.43;;;4.65;;
45564;SDS011;31280;40.408;17.282;2022-11-03T02:09:23;10.75;;;3.92;;
45564;SDS011;31280;40.408;17.282;2022-11-03T02:11:49;9.10;;;3.85;;
45564;SDS011;31280;40.408;17.282;2022-11-03T02:14:34;13.82;;;4.10;;
45564;SDS011;31280;40.408;17.282;2022-11-03T02:17:05;12.52;;;4.00;;
45564;SDS011;31280;40.408;17.282;2022-11-03T02:19:35;12.63;;;3.92;;
45564;SDS011;31280;40.408;17.282;2022-11-03T02:25:01;14.57;;;3.75;;
45564;SDS011;31280;40.408;17.282;2022-11-03T02:27:39;14.27;;;4.13;;
45564;SDS011;31280;40.408;17.282;2022-11-03T02:30:05;7.88;;;3.80;;
45564;SDS011;31280;40.408;17.282;2022-11-03T02:32:32;8.80;;;3.08;;
45564;SDS011;31280;40.408;17.282;2022-11-03T02:37:33;8.25;;;3.40;;
45564;SDS011;31280;40.408;17.282;2022-11-03T02:40:04;11.38;;;3.70;;
45564;SDS011;31280;40.408;17.282;2022-11-03T02:42:34;8.02;;;3.50;;
45564;SDS011;31280;40.408;17.282;2022-11-03T02:45:02;13.00;;;4.20;;
45564;SDS011;31280;40.408;17.282;2022-11-03T02:47:32;10.10;;;3.55;;
45564;SDS011;31280;40.408;17.282;2022-11-03T02:50:00;7.60;;;3.83;;
45564;SDS011;31280;40.408;17.282;2022-11-03T02:55:44;11.10;;;4.20;;
45564;SDS011;31280;40.408;17.282;2022-11-03T03:01:16;9.50;;;4.03;;
45564;SDS011;31280;40.408;17.282;2022-11-03T03:04:22;9.57;;;3.90;;
45564;SDS011;31280;40.408;17.282;2022-11-03T03:07:02;11.48;;;4.15;;
45564;SDS011;31280;40.408;17.282;2022-11-03T03:09:39;7.13;;;3.22;;
45564;SDS011;31280;40.408;17.282;2022-11-03T03:12:09;8.25;;;4.18;;
45564;SDS011;31280;40.408;17.282;2022-11-03T03:14:37;8.38;;;3.72;;
45564;SDS011;31280;40.408;17.282;2022-11-03T03:22:18;10.15;;;3.65;;
45564;SDS011;31280;40.408;17.282;2022-11-03T03:25:08;11.10;;;3.78;;
45564;SDS011;31280;40.408;17.282;2022-11-03T03:27:40;13.90;;;3.88;;
45564;SDS011;31280;40.408;17.282;2022-11-03T03:30:10;11.35;;;4.03;;
45564;SDS011;31280;40.408;17.282;2022-11-03T03:32:38;8.25;;;4.10;;
45564;SDS011;31280;40.408;17.282;2022-11-03T03:35:09;10.85;;;4.43;;
45564;SDS011;31280;40.408;17.282;2022-11-03T03:37:42;13.30;;;4.00;;
45564;SDS011;31280;40.408;17.282;2022-11-03T03:40:11;15.10;;;4.18;;
45564;SDS011;31280;40.408;17.282;2022-11-03T03:42:41;6.32;;;3.28;;
45564;SDS011;31280;40.408;17.282;2022-11-03T03:45:09;10.60;;;3.92;;
45564;SDS011;31280;40.408;17.282;2022-11-03T03:47:37;12.45;;;4.18;;
45564;SDS011;31280;40.408;17.282;2022-11-03T03:50:03;7.65;;;4.10;;
45564;SDS011;31280;40.408;17.282;2022-11-03T03:52:29;14.52;;;3.97;;
45564;SDS011;31280;40.408;17.282;2022-11-03T03:54:55;12.60;;;4.50;;
45564;SDS011;31280;40.408;17.282;2022-11-03T03:57:22;9.20;;;4.35;;
45564;SDS011;31280;40.408;17.282;2022-11-03T03:59:49;7.50;;;3.95;;
45564;SDS011;31280;40.408;17.282;2022-11-03T04:02:15;10.60;;;4.07;;
45564;SDS011;31280;40.408;17.282;2022-11-03T04:04:41;8.20;;;4.18;;
45564;SDS011;31280;40.408;17.282;2022-11-03T04:07:06;8.55;;;3.92;;
45564;SDS011;31280;40.408;17.282;2022-11-03T04:09:51;10.90;;;4.47;;
45564;SDS011;31280;40.408;17.282;2022-11-03T04:12:17;8.43;;;3.92;;
45564;SDS011;31280;40.408;17.282;2022-11-03T04:15:02;10.80;;;3.45;;
45564;SDS011;31280;40.408;17.282;2022-11-03T04:17:46;11.50;;;4.10;;
45564;SDS011;31280;40.408;17.282;2022-11-03T04:20:31;10.10;;;3.97;;
45564;SDS011;31280;40.408;17.282;2022-11-03T04:23:16;9.10;;;4.03;;
45564;SDS011;31280;40.408;17.282;2022-11-03T04:25:54;11.15;;;4.82;;
45564;SDS011;31280;40.408;17.282;2022-11-03T04:28:21;11.43;;;4.20;;
45564;SDS011;31280;40.408;17.282;2022-11-03T04:30:48;9.80;;;4.30;;
45564;SDS011;31280;40.408;17.282;2022-11-03T04:33:14;11.23;;;4.75;;
45564;SDS011;31280;40.408;17.282;2022-11-03T04:35:42;11.98;;;4.10;;
45564;SDS011;31280;40.408;17.282;2022-11-03T04:40:40;8.02;;;3.88;;
45564;SDS011;31280;40.408;17.282;2022-11-03T04:43:09;11.88;;;4.65;;
45564;SDS011;31280;40.408;17.282;2022-11-03T04:45:37;13.95;;;4.68;;
45564;SDS011;31280;40.408;17.282;2022-11-03T04:48:14;12.00;;;4.13;;
45564;SDS011;31280;40.408;17.282;2022-11-03T04:50:45;7.95;;;4.43;;
45564;SDS011;31280;40.408;17.282;2022-11-03T04:53:14;10.90;;;4.95;;
45564;SDS011;31280;40.408;17.282;2022-11-03T04:55:42;7.05;;;4.07;;
45564;SDS011;31280;40.408;17.282;2022-11-03T05:00:57;11.98;;;4.03;;
45564;SDS011;31280;40.408;17.282;2022-11-03T05:05:55;11.85;;;4.43;;
45564;SDS011;31280;40.408;17.282;2022-11-03T05:08:21;12.65;;;4.53;;
45564;SDS011;31280;40.408;17.282;2022-11-03T05:10:48;12.38;;;4.25;;
45564;SDS011;31280;40.408;17.282;2022-11-03T05:13:23;11.35;;;4.25;;
45564;SDS011;31280;40.408;17.282;2022-11-03T05:15:52;11.88;;;4.07;;
45564;SDS011;31280;40.408;17.282;2022-11-03T05:18:26;10.73;;;4.20;;
45564;SDS011;31280;40.408;17.282;2022-11-03T05:23:26;12.35;;;4.55;;
45564;SDS011;31280;40.408;17.282;2022-11-03T05:25:55;15.30;;;4.70;;
45564;SDS011;31280;40.408;17.282;2022-11-03T05:28:41;16.90;;;4.25;;
45564;SDS011;31280;40.408;17.282;2022-11-03T05:31:19;14.75;;;4.38;;
45564;SDS011;31280;40.408;17.282;2022-11-03T05:33:49;15.93;;;4.80;;
45564;SDS011;31280;40.408;17.282;2022-11-03T05:36:18;10.57;;;4.95;;
45564;SDS011;31280;40.408;17.282;2022-11-03T05:38:46;9.88;;;4.38;;
45564;SDS011;31280;40.408;17.282;2022-11-03T05:41:20;8.68;;;4.32;;
45564;SDS011;31280;40.408;17.282;2022-11-03T05:44:31;16.38;;;5.32;;
45564;SDS011;31280;40.408;17.282;2022-11-03T05:46:55;15.63;;;5.20;;
45564;SDS011;31280;40.408;17.282;2022-11-03T05:49:22;14.20;;;4.80;;
45564;SDS011;31280;40.408;17.282;2022-11-03T05:51:48;11.50;;;5.45;;
45564;SDS011;31280;40.408;17.282;2022-11-03T05:54:23;15.75;;;6.07;;
45564;SDS011;31280;40.408;17.282;2022-11-03T05:56:52;17.02;;;6.05;;
45564;SDS011;31280;40.408;17.282;2022-11-03T05:59:22;13.73;;;5.03;;
45564;SDS011;31280;40.408;17.282;2022-11-03T06:01:49;14.88;;;5.75;;
45564;SDS011;31280;40.408;17.282;2022-11-03T06:04:19;14.82;;;5.32;;
45564;SDS011;31280;40.408;17.282;2022-11-03T06:06:52;17.52;;;5.47;;
45564;SDS011;31280;40.408;17.282;2022-11-03T06:09:23;12.38;;;5.38;;
45564;SDS011;31280;40.408;17.282;2022-11-03T06:11:52;12.65;;;6.15;;
45564;SDS011;31280;40.408;17.282;2022-11-03T06:14:21;16.70;;;4.70;;
45564;SDS011;31280;40.408;17.282;2022-11-03T06:16:49;12.25;;;5.18;;
45564;SDS011;31280;40.408;17.282;2022-11-03T06:19:37;16.15;;;5.35;;
45564;SDS011;31280;40.408;17.282;2022-11-03T06:24:44;12.82;;;5.03;;
45564;SDS011;31280;40.408;17.282;2022-11-03T06:27:21;14.27;;;5.10;;
45564;SDS011;31280;40.408;17.282;2022-11-03T06:29:49;11.27;;;4.45;;
45564;SDS011;31280;40.408;17.282;2022-11-03T06:32:21;10.68;;;4.25;;
45564;SDS011;31280;40.408;17.282;2022-11-03T06:34:56;17.33;;;4.78;;
45564;SDS011;31280;40.408;17.282;2022-11-03T06:40:41;17.55;;;4.75;;
45564;SDS011;31280;40.408;17.282;2022-11-03T06:42:42;12.38;;;5.03;;
45564;SDS011;31280;40.408;17.282;2022-11-03T06:45:18;11.57;;;4.85;;
45564;SDS011;31280;40.408;17.282;2022-11-03T06:47:56;18.23;;;5.05;;
45564;SDS011;31280;40.408;17.282;2022-11-03T06:57:10;13.77;;;4.90;;
45564;SDS011;31280;40.408;17.282;2022-11-03T06:59:53;9.02;;;4.32;;
45564;SDS011;31280;40.408;17.282;2022-11-03T07:05:40;10.70;;;4.18;;
45564;SDS011;31280;40.408;17.282;2022-11-03T07:08:31;12.85;;;3.78;;
45564;SDS011;31280;40.408;17.282;2022-11-03T07:11:20;10.50;;;4.15;;
45564;SDS011;31280;40.408;17.282;2022-11-03T07:14:17;9.63;;;4.10;;
45564;SDS011;31280;40.408;17.282;2022-11-03T07:17:15;12.57;;;4.53;;
45564;SDS011;31280;40.408;17.282;2022-11-03T07:19:49;11.93;;;4.63;;
45564;SDS011;31280;40.408;17.282;2022-11-03T07:22:20;7.82;;;3.90;;
45564;SDS011;31280;40.408;17.282;2022-11-03T07:24:49;11.20;;;4.07;;
45564;SDS011;31280;40.408;17.282;2022-11-03T07:27:28;14.13;;;4.65;;
45564;SDS011;31280;40.408;17.282;2022-11-03T07:32:48;7.95;;;4.82;;
45564;SDS011;31280;40.408;17.282;2022-11-03T07:35:32;11.13;;;4.20;;
45564;SDS011;31280;40.408;17.282;2022-11-03T07:38:08;10.88;;;4.55;;
45564;SDS011;31280;40.408;17.282;2022-11-03T07:40:36;9.02;;;4.18;;
45564;SDS011;31280;40.408;17.282;2022-11-03T07:43:10;9.45;;;5.03;;
45564;SDS011;31280;40.408;17.282;2022-11-03T07:45:42;9.02;;;4.30;;
45564;SDS011;31280;40.408;17.282;2022-11-03T07:48:27;17.67;;;4.53;;
45564;SDS011;31280;40.408;17.282;2022-11-03T07:51:44;16.02;;;4.95;;
45564;SDS011;31280;40.408;17.282;2022-11-03T07:56:31;10.95;;;3.95;;
45564;SDS011;31280;40.408;17.282;2022-11-03T07:59:21;20.85;;;4.47;;
45564;SDS011;31280;40.408;17.282;2022-11-03T08:01:54;11.75;;;4.70;;
45564;SDS011;31280;40.408;17.282;2022-11-03T08:04:29;12.00;;;4.88;;
45564;SDS011;31280;40.408;17.282;2022-11-03T08:06:59;13.88;;;4.50;;
45564;SDS011;31280;40.408;17.282;2022-11-03T08:09:25;14.25;;;4.40;;
45564;SDS011;31280;40.408;17.282;2022-11-03T08:11:52;14.65;;;5.35;;
45564;SDS011;31280;40.408;17.282;2022-11-03T08:14:18;13.15;;;4.57;;
45564;SDS011;31280;40.408;17.282;2022-11-03T08:16:44;8.38;;;4.45;;
45564;SDS011;31280;40.408;17.282;2022-11-03T08:19:10;13.50;;;4.45;;
45564;SDS011;31280;40.408;17.282;2022-11-03T08:21:36;14.60;;;4.80;;
45564;SDS011;31280;40.408;17.282;2022-11-03T08:24:03;11.50;;;4.50;;
45564;SDS011;31280;40.408;17.282;2022-11-03T08:26:29;12.85;;;5.20;;
45564;SDS011;31280;40.408;17.282;2022-11-03T08:28:56;13.15;;;4.55;;
45564;SDS011;31280;40.408;17.282;2022-11-03T08:31:22;8.65;;;4.90;;
45564;SDS011;31280;40.408;17.282;2022-11-03T08:33:48;11.13;;;4.85;;
45564;SDS011;31280;40.408;17.282;2022-11-03T08:36:13;16.33;;;4.97;;
45564;SDS011;31280;40.408;17.282;2022-11-03T08:38:39;11.45;;;5.88;;
45564;SDS011;31280;40.408;17.282;2022-11-03T08:41:05;23.63;;;4.95;;
45564;SDS011;31280;40.408;17.282;2022-11-03T08:43:31;13.38;;;5.47;;
45564;SDS011;31280;40.408;17.282;2022-11-03T08:45:57;12.38;;;4.28;;
45564;SDS011;31280;40.408;17.282;2022-11-03T08:48:24;13.00;;;5.45;;
45564;SDS011;31280;40.408;17.282;2022-11-03T08:50:54;8.45;;;3.70;;
45564;SDS011;31280;40.408;17.282;2022-11-03T08:53:20;9.05;;;3.70;;
45564;SDS011;31280;40.408;17.282;2022-11-03T08:55:47;11.18;;;4.05;;
45564;SDS011;31280;40.408;17.282;2022-11-03T08:58:13;15.73;;;3.95;;
45564;SDS011;31280;40.408;17.282;2022-11-03T09:00:38;14.07;;;3.67;;
45564;SDS011;31280;40.408;17.282;2022-11-03T09:03:04;8.43;;;3.95;;
45564;SDS011;31280;40.408;17.282;2022-11-03T09:05:30;11.45;;;3.72;;
45564;SDS011;31280;40.408;17.282;2022-11-03T09:07:56;7.85;;;3.25;;
45564;SDS011;31280;40.408;17.282;2022-11-03T09:10:22;9.55;;;3.83;;
45564;SDS011;31280;40.408;17.282;2022-11-03T09:12:48;7.55;;;3.55;;
45564;SDS011;31280;40.408;17.282;2022-11-03T09:15:14;7.85;;;2.75;;
45564;SDS011;31280;40.408;17.282;2022-11-03T09:17:41;7.05;;;3.42;;
45564;SDS011;31280;40.408;17.282;2022-11-03T09:20:08;7.28;;;2.85;;
45564;SDS011;31280;40.408;17.282;2022-11-03T09:22:36;11.07;;;3.05;;
45564;SDS011;31280;40.408;17.282;2022-11-03T09:25:01;13.95;;;3.92;;
45564;SDS011;31280;40.408;17.282;2022-11-03T09:27:29;8.27;;;3.13;;
45564;SDS011;31280;40.408;17.282;2022-11-03T09:29:55;9.55;;;3.50;;
45564;SDS011;31280;40.408;17.282;2022-11-03T09:32:21;6.60;;;3.20;;
45564;SDS011;31280;40.408;17.282;2022-11-03T09:34:47;13.48;;;3.70;;
45564;SDS011;31280;40.408;17.282;2022-11-03T09:37:13;9.68;;;2.80;;
45564;SDS011;31280;40.408;17.282;2022-11-03T09:39:40;8.02;;;3.15;;
45564;SDS011;31280;40.408;17.282;2022-11-03T09:42:09;8.23;;;2.53;;
45564;SDS011;31280;40.408;17.282;2022-11-03T09:44:36;7.63;;;3.25;;
45564;SDS011;31280;40.408;17.282;2022-11-03T09:47:02;7.03;;;2.83;;
45564;SDS011;31280;40.408;17.282;2022-11-03T09:49:31;7.32;;;3.28;;
45564;SDS011;31280;40.408;17.282;2022-11-03T09:51:58;7.93;;;2.92;;
45564;SDS011;31280;40.408;17.282;2022-11-03T09:54:26;7.90;;;3.05;;
45564;SDS011;31280;40.408;17.282;2022-11-03T09:56:52;7.25;;;3.00;;
45564;SDS011;31280;40.408;17.282;2022-11-03T09:59:20;7.47;;;2.70;;
45564;SDS011;31280;40.408;17.282;2022-11-03T10:01:48;9.15;;;2.60;;
45564;SDS011;31280;40.408;17.282;2022-11-03T10:04:32;7.00;;;2.95;;
45564;SDS011;31280;40.408;17.282;2022-11-03T10:06:58;9.77;;;2.90;;
45564;SDS011;31280;40.408;17.282;2022-11-03T10:09:25;11.73;;;3.05;;
45564;SDS011;31280;40.408;17.282;2022-11-03T10:11:54;11.02;;;2.83;;
45564;SDS011;31280;40.408;17.282;2022-11-03T10:14:20;7.72;;;2.80;;
45564;SDS011;31280;40.408;17.282;2022-11-03T10:17:05;10.73;;;3.20;;
45564;SDS011;31280;40.408;17.282;2022-11-03T10:19:31;8.57;;;2.60;;
45564;SDS011;31280;40.408;17.282;2022-11-03T10:21:57;5.03;;;2.40;;
45564;SDS011;31280;40.408;17.282;2022-11-03T10:24:23;4.63;;;2.20;;
45564;SDS011;31280;40.408;17.282;2022-11-03T10:26:50;5.82;;;2.17;;
45564;SDS011;31280;40.408;17.282;2022-11-03T10:29:23;9.32;;;2.70;;
45564;SDS011;31280;40.408;17.282;2022-11-03T10:31:51;10.10;;;2.42;;
45564;SDS011;31280;40.408;17.282;2022-11-03T10:34:39;4.75;;;2.53;;
45564;SDS011;31280;40.408;17.282;2022-11-03T10:39:34;6.30;;;2.95;;
45564;SDS011;31280;40.408;17.282;2022-11-03T10:42:00;5.63;;;2.38;;
45564;SDS011;31280;40.408;17.282;2022-11-03T10:44:26;7.07;;;2.22;;
45564;SDS011;31280;40.408;17.282;2022-11-03T10:46:57;9.07;;;2.35;;
45564;SDS011;31280;40.408;17.282;2022-11-03T10:49:28;6.72;;;2.45;;
45564;SDS011;31280;40.408;17.282;2022-11-03T10:52:15;7.10;;;2.60;;
45564;SDS011;31280;40.408;17.282;2022-11-03T10:57:35;6.80;;;2.30;;
45564;SDS011;31280;40.408;17.282;2022-11-03T11:00:02;7.57;;;2.28;;
45564;SDS011;31280;40.408;17.282;2022-11-03T11:02:29;8.80;;;2.20;;
45564;SDS011;31280;40.408;17.282;2022-11-03T11:05:00;4.70;;;2.13;;
45564;SDS011;31280;40.408;17.282;2022-11-03T11:07:35;7.22;;;2.00;;
45564;SDS011;31280;40.408;17.282;2022-11-03T11:10:05;3.50;;;2.20;;
45564;SDS011;31280;40.408;17.282;2022-11-03T11:13:00;5.68;;;1.98;;
45564;SDS011;31280;40.408;17.282;2022-11-03T11:18:09;8.35;;;2.70;;
45564;SDS011;31280;40.408;17.282;2022-11-03T11:20:37;6.03;;;2.95;;
45564;SDS011;31280;40.408;17.282;2022-11-03T11:31:35;7.75;;;2.90;;
45564;SDS011;31280;40.408;17.282;2022-11-03T11:36:34;8.27;;;2.85;;
45564;SDS011;31280;40.408;17.282;2022-11-03T11:39:01;9.52;;;3.42;;
45564;SDS011;31280;40.408;17.282;2022-11-03T11:52:39;5.50;;;2.88;;
45564;SDS011;31280;40.408;17.282;2022-11-03T11:55:16;7.95;;;3.08;;
45564;SDS011;31280;40.408;17.282;2022-11-03T11:57:42;7.55;;;3.05;;
45564;SDS011;31280;40.408;17.282;2022-11-03T12:00:48;6.60;;;2.78;;
45564;SDS011;31280;40.408;17.282;2022-11-03T12:03:01;10.75;;;2.88;;
45564;SDS011;31280;40.408;17.282;2022-11-03T12:05:30;8.02;;;2.33;;
45564;SDS011;31280;40.408;17.282;2022-11-03T12:07:58;6.75;;;2.70;;
45564;SDS011;31280;40.408;17.282;2022-11-03T12:10:28;9.20;;;2.58;;
45564;SDS011;31280;40.408;17.282;2022-11-03T12:12:56;9.02;;;2.53;;
45564;SDS011;31280;40.408;17.282;2022-11-03T12:18:54;6.70;;;2.40;;
45564;SDS011;31280;40.408;17.282;2022-11-03T12:21:42;8.73;;;2.58;;
45564;SDS011;31280;40.408;17.282;2022-11-03T12:24:25;6.78;;;2.58;;
45564;SDS011;31280;40.408;17.282;2022-11-03T12:26:57;5.70;;;2.72;;
45564;SDS011;31280;40.408;17.282;2022-11-03T12:29:24;10.50;;;2.63;;
45564;SDS011;31280;40.408;17.282;2022-11-03T12:31:50;6.13;;;2.50;;
45564;SDS011;31280;40.408;17.282;2022-11-03T12:34:16;10.48;;;2.70;;
45564;SDS011;31280;40.408;17.282;2022-11-03T12:36:43;3.83;;;2.05;;
45564;SDS011;31280;40.408;17.282;2022-11-03T12:39:09;8.32;;;2.65;;
45564;SDS011;31280;40.408;17.282;2022-11-03T12:41:35;5.68;;;2.50;;
45564;SDS011;31280;40.408;17.282;2022-11-03T12:44:01;6.40;;;2.50;;
45564;SDS011;31280;40.408;17.282;2022-11-03T12:46:27;4.60;;;2.80;;
45564;SDS011;31280;40.408;17.282;2022-11-03T12:48:53;7.35;;;2.88;;
45564;SDS011;31280;40.408;17.282;2022-11-03T12:51:20;6.15;;;2.60;;
45564;SDS011;31280;40.408;17.282;2022-11-03T12:53:46;5.47;;;2.88;;
45564;SDS011;31280;40.408;17.282;2022-11-03T12:56:13;5.35;;;2.60;;
45564;SDS011;31280;40.408;17.282;2022-11-03T12:58:40;5.22;;;3.03;;
45564;SDS011;31280;40.408;17.282;2022-11-03T13:01:06;15.30;;;6.20;;
45564;SDS011;31280;40.408;17.282;2022-11-03T13:03:33;10.05;;;4.75;;
45564;SDS011;31280;40.408;17.282;2022-11-03T13:06:00;9.32;;;3.58;;
45564;SDS011;31280;40.408;17.282;2022-11-03T13:08:38;12.98;;;2.83;;
45564;SDS011;31280;40.408;17.282;2022-11-03T13:11:05;7.88;;;2.80;;
45564;SDS011;31280;40.408;17.282;2022-11-03T13:13:51;5.93;;;2.35;;
45564;SDS011;31280;40.408;17.282;2022-11-03T13:16:17;6.78;;;2.38;;
45564;SDS011;31280;40.408;17.282;2022-11-03T13:18:43;9.63;;;2.70;;
45564;SDS011;31280;40.408;17.282;2022-11-03T13:21:09;4.70;;;2.33;;
45564;SDS011;31280;40.408;17.282;2022-11-03T13:23:41;5.55;;;2.78;;
45564;SDS011;31280;40.408;17.282;2022-11-03T13:26:06;9.43;;;3.28;;
45564;SDS011;31280;40.408;17.282;2022-11-03T13:28:32;11.23;;;2.58;;
45564;SDS011;31280;40.408;17.282;2022-11-03T13:30:58;7.32;;;2.53;;
45564;SDS011;31280;40.408;17.282;2022-11-03T13:33:24;6.75;;;2.97;;
45564;SDS011;31280;40.408;17.282;2022-11-03T13:35:50;6.07;;;2.97;;
45564;SDS011;31280;40.408;17.282;2022-11-03T13:38:16;8.57;;;2.70;;
45564;SDS011;31280;40.408;17.282;2022-11-03T13:40:42;6.43;;;2.30;;
45564;SDS011;31280;40.408;17.282;2022-11-03T13:43:08;8.73;;;2.42;;
45564;SDS011;31280;40.408;17.282;2022-11-03T13:45:34;4.22;;;2.20;;
45564;SDS011;31280;40.408;17.282;2022-11-03T13:48:03;7.18;;;2.15;;
45564;SDS011;31280;40.408;17.282;2022-11-03T13:50:29;10.70;;;2.42;;
45564;SDS011;31280;40.408;17.282;2022-11-03T13:52:55;6.57;;;2.25;;
45564;SDS011;31280;40.408;17.282;2022-11-03T13:55:21;10.30;;;2.63;;
45564;SDS011;31280;40.408;17.282;2022-11-03T13:57:47;8.68;;;3.83;;
45564;SDS011;31280;40.408;17.282;2022-11-03T14:00:13;7.78;;;2.50;;
45564;SDS011;31280;40.408;17.282;2022-11-03T14:02:41;9.02;;;2.83;;
45564;SDS011;31280;40.408;17.282;2022-11-03T14:05:08;5.80;;;2.58;;
45564;SDS011;31280;40.408;17.282;2022-11-03T14:07:34;9.48;;;2.97;;
45564;SDS011;31280;40.408;17.282;2022-11-03T14:10:02;5.65;;;2.80;;
45564;SDS011;31280;40.408;17.282;2022-11-03T14:12:29;5.72;;;2.92;;
45564;SDS011;31280;40.408;17.282;2022-11-03T14:14:58;11.88;;;3.97;;
45564;SDS011;31280;40.408;17.282;2022-11-03T14:17:29;13.10;;;4.75;;
45564;SDS011;31280;40.408;17.282;2022-11-03T14:19:56;12.82;;;3.22;;
45564;SDS011;31280;40.408;17.282;2022-11-03T14:22:22;10.48;;;3.03;;
45564;SDS011;31280;40.408;17.282;2022-11-03T14:24:49;10.68;;;2.92;;
45564;SDS011;31280;40.408;17.282;2022-11-03T14:27:16;14.40;;;2.95;;
45564;SDS011;31280;40.408;17.282;2022-11-03T14:29:43;7.80;;;2.95;;
45564;SDS011;31280;40.408;17.282;2022-11-03T14:32:10;10.55;;;3.58;;
45564;SDS011;31280;40.408;17.282;2022-11-03T14:34:36;6.43;;;3.22;;
45564;SDS011;31280;40.408;17.282;2022-11-03T14:37:03;7.40;;;2.72;;
45564;SDS011;31280;40.408;17.282;2022-11-03T14:39:29;6.82;;;3.30;;
45564;SDS011;31280;40.408;17.282;2022-11-03T14:41:55;11.70;;;2.90;;
45564;SDS011;31280;40.408;17.282;2022-11-03T14:44:29;7.72;;;2.88;;
45564;SDS011;31280;40.408;17.282;2022-11-03T14:46:55;9.90;;;3.60;;
45564;SDS011;31280;40.408;17.282;2022-11-03T14:49:21;7.55;;;3.03;;
45564;SDS011;31280;40.408;17.282;2022-11-03T14:51:47;8.07;;;3.05;;
45564;SDS011;31280;40.408;17.282;2022-11-03T14:54:13;8.80;;;3.92;;
45564;SDS011;31280;40.408;17.282;2022-11-03T14:56:40;8.15;;;3.72;;
45564;SDS011;31280;40.408;17.282;2022-11-03T14:59:06;7.68;;;3.33;;
45564;SDS011;31280;40.408;17.282;2022-11-03T15:01:32;7.88;;;3.75;;
45564;SDS011;31280;40.408;17.282;2022-11-03T15:03:58;9.55;;;3.67;;
45564;SDS011;31280;40.408;17.282;2022-11-03T15:06:23;10.43;;;3.50;;
45564;SDS011;31280;40.408;17.282;2022-11-03T15:08:49;10.70;;;3.28;;
45564;SDS011;31280;40.408;17.282;2022-11-03T15:11:15;10.77;;;3.70;;
45564;SDS011;31280;40.408;17.282;2022-11-03T15:13:40;8.80;;;3.70;;
45564;SDS011;31280;40.408;17.282;2022-11-03T15:16:07;11.35;;;3.22;;
45564;SDS011;31280;40.408;17.282;2022-11-03T15:18:32;8.07;;;3.30;;
45564;SDS011;31280;40.408;17.282;2022-11-03T15:20:58;5.43;;;3.15;;
45564;SDS011;31280;40.408;17.282;2022-11-03T15:23:25;6.90;;;3.50;;
45564;SDS011;31280;40.408;17.282;2022-11-03T15:25:51;8.30;;;3.85;;
45564;SDS011;31280;40.408;17.282;2022-11-03T15:28:17;10.38;;;4.05;;
45564;SDS011;31280;40.408;17.282;2022-11-03T15:30:45;13.10;;;5.05;;
45564;SDS011;31280;40.408;17.282;2022-11-03T15:33:13;10.63;;;4.63;;
45564;SDS011;31280;40.408;17.282;2022-11-03T15:35:39;8.65;;;3.85;;
45564;SDS011;31280;40.408;17.282;2022-11-03T15:38:05;8.93;;;3.30;;
45564;SDS011;31280;40.408;17.282;2022-11-03T15:40:30;11.73;;;3.88;;
45564;SDS011;31280;40.408;17.282;2022-11-03T15:42:57;8.48;;;3.38;;
45564;SDS011;31280;40.408;17.282;2022-11-03T15:45:22;11.50;;;3.78;;
45564;SDS011;31280;40.408;17.282;2022-11-03T15:47:49;13.18;;;3.63;;
45564;SDS011;31280;40.408;17.282;2022-11-03T15:50:15;12.73;;;4.65;;
45564;SDS011;31280;40.408;17.282;2022-11-03T15:52:41;7.15;;;3.80;;
45564;SDS011;31280;40.408;17.282;2022-11-03T15:55:07;8.32;;;3.97;;
45564;SDS011;31280;40.408;17.282;2022-11-03T15:57:33;12.18;;;4.47;;
45564;SDS011;31280;40.408;17.282;2022-11-03T15:59:59;11.02;;;4.30;;
45564;SDS011;31280;40.408;17.282;2022-11-03T16:02:25;11.07;;;3.92;;
45564;SDS011;31280;40.408;17.282;2022-11-03T16:04:52;11.05;;;3.78;;
45564;SDS011;31280;40.408;17.282;2022-11-03T16:07:18;15.00;;;5.15;;
45564;SDS011;31280;40.408;17.282;2022-11-03T16:09:44;13.13;;;4.78;;
45564;SDS011;31280;40.408;17.282;2022-11-03T16:12:11;6.22;;;3.47;;
45564;SDS011;31280;40.408;17.282;2022-11-03T16:14:37;10.18;;;4.03;;